Helmetta, New Jersey
Current Conditions -  °F | °C
As of 6:15 PM on Thursday 23 Oct 2014 (Local Time) from KLDJ Reporting Station
Overcast Overcast  
Wind Chill: 56°   Ceiling: 3800
Heat Index: 56°   Visibility: 10mi
Dew Point: 49°   Wind: 15mph
Humidity: 75%   Direction: 350°N
Pressure: 29.76"   Gusts: 21mph
Location:  40.38°N, 74.42°W
Report Text: KLDJ 232215Z AUTO 35013G18KT 10SM OVC038 14/09 A2976 RMK AO2 T01360093
Loading
Personal Weather Stations






























Interactive Weather Map
Tropical Storm Tracking
New forecast layout! Learn more

10-Day Weather Forecast

Advertisements
Track Severe Weather on mobile